Levan, Illinois
Current Conditions -  °F | °C
As of 4:52 AM on Thursday 27 Nov 2014 (Local Time) from KMDH Reporting Station
Overcast Overcast  
Wind Chill: 23°   Ceiling: 1200
Heat Index: 32°   Visibility: 8mi
Dew Point: 28°   Wind: 13mph
Humidity: 85%   Direction: 320°NW
Pressure: 30.35"   Gusts: 21mph
Location:  37.776°N, 89.3234°W
Report Text: KMDH 271052Z AUTO 32011G18KT 8SM BKN012 OVC017 00/M02 A3035 RMK AO2 SLP282 T00001022
Loading
Personal Weather Stations






























Interactive Weather Map New forecast layout! Learn more

10-Day Weather Forecast

Advertisements
Track Severe Weather on mobile